Bernadotte, Illinois
Current Conditions -  °F | °C
As of 1:55 AM on Thursday 23 Oct 2014 (Local Time) from KMQB Reporting Station
Clear Clear  
Wind Chill: 35°   Ceiling: Unl
Heat Index: 40°   Visibility: 10mi
Dew Point: 37°   Wind: 8mph
Humidity: 86%   Direction: 160°SSE
Pressure: 30.21"   Gusts: NA
Location:  40.364°N, 90.2765°W
Report Text: KMQB 230655Z AUTO 16007KT 10SM CLR 05/03 A3021 RMK AO2 T00470026
Loading
Personal Weather Stations






























Interactive Weather Map New forecast layout! Learn more

10-Day Weather Forecast

Advertisements
Track Severe Weather on mobile